createdAt,value
2022-12-19T00:00:13.983Z,101683.53
2022-12-19T00:01:22.765Z,101673.91
2022-12-19T00:02:24.608Z,101666.97
2022-12-19T00:03:27.614Z,101680.03
2022-12-19T00:04:29.237Z,101679.16
2022-12-19T00:05:31.741Z,101676.53
2022-12-19T00:06:34.201Z,101676.53
2022-12-19T00:07:37.382Z,101659.03
2022-12-19T00:08:42.234Z,101663.38
2022-12-19T00:09:43.733Z,101659.88
2022-12-19T00:10:55.594Z,101662.47
2022-12-19T00:11:57.190Z,101663.28
2022-12-19T00:12:59.667Z,101658.94
2022-12-19T00:14:01.221Z,101656.28
2022-12-19T00:15:04.083Z,101657.16
2022-12-19T00:16:08.789Z,101659.69
2022-12-19T00:17:11.277Z,101659.66
2022-12-19T00:18:13.018Z,101657.06
2022-12-19T00:19:15.882Z,101659.59
2022-12-19T00:20:26.590Z,101664.84
2022-12-19T00:21:34.653Z,101658.75
2022-12-19T00:22:38.207Z,101663.16
2022-12-19T00:23:42.199Z,101660.53
2022-12-19T00:24:43.732Z,101667.44
2022-12-19T00:25:46.207Z,101666.56
2022-12-19T00:26:49.345Z,101658.66
2022-12-19T00:27:51.839Z,101657.75
2022-12-19T00:28:55.237Z,101666.47
2022-12-19T00:29:59.503Z,101658.59
2022-12-19T00:31:01.518Z,101655.03
2022-12-19T00:32:04.135Z,101649.81
2022-12-19T00:33:05.735Z,101647.16
2022-12-19T00:34:08.847Z,101642.78
2022-12-19T00:35:10.723Z,101651.53
2022-12-19T00:36:15.071Z,101652.41
2022-12-19T00:37:18.586Z,101638.38
2022-12-19T00:38:22.415Z,101641.88
2022-12-19T00:39:24.208Z,101634.03
2022-12-19T00:40:26.689Z,101625.28
2022-12-19T00:41:30.026Z,101625.28
2022-12-19T00:42:32.512Z,101623.53
2022-12-19T00:43:34.474Z,101617.38
2022-12-19T00:44:36.940Z,101613.00
2022-12-19T00:45:38.711Z,101614.69
2022-12-19T00:46:41.680Z,101626.91
2022-12-19T00:47:43.164Z,101625.16
2022-12-19T00:48:45.666Z,101624.22
2022-12-19T00:49:47.238Z,101632.03
2022-12-19T00:50:51.171Z,101629.44
2022-12-19T00:51:53.435Z,101630.28
2022-12-19T00:52:56.175Z,101640.78
2022-12-19T00:53:59.946Z,101641.66
2022-12-19T00:55:03.021Z,101639.91
2022-12-19T00:56:12.088Z,101634.69
2022-12-19T00:57:15.174Z,101637.28
2022-12-19T00:58:21.460Z,101617.22
2022-12-19T00:59:34.365Z,101617.22
2022-12-19T01:00:35.934Z,101616.44
2022-12-19T01:01:41.192Z,101620.75
2022-12-19T01:02:43.540Z,101621.66
2022-12-19T01:04:18.580Z,101617.31
2022-12-19T01:05:18.967Z,101613.75
2022-12-19T01:06:21.464Z,101625.09
2022-12-19T01:07:24.573Z,101614.63
2022-12-19T01:08:26.090Z,101610.25
2022-12-19T01:09:31.235Z,101611.09
2022-12-19T01:10:32.770Z,101611.09
2022-12-19T01:11:53.500Z,101618.03
2022-12-19T01:12:56.033Z,101612.78
2022-12-19T01:13:57.525Z,101603.19
2022-12-19T01:15:05.018Z,101604.06
2022-12-19T01:16:10.312Z,101587.50
2022-12-19T01:17:12.144Z,101587.50
2022-12-19T01:18:14.804Z,101577.00
2022-12-19T01:19:16.400Z,101602.25
2022-12-19T01:20:29.242Z,101597.03
2022-12-19T01:21:31.476Z,101588.25
2022-12-19T01:22:33.976Z,101575.13
2022-12-19T01:23:36.050Z,101576.00
2022-12-19T01:24:39.882Z,101576.00
2022-12-19T01:25:43.077Z,101581.22
2022-12-19T01:26:48.461Z,101592.53
2022-12-19T01:27:49.976Z,101570.75
2022-12-19T01:28:52.476Z,101582.91
2022-12-19T01:29:53.981Z,101595.09
2022-12-19T01:30:56.477Z,101575.88
2022-12-19T01:31:58.132Z,101586.34
2022-12-19T01:33:01.114Z,101584.59
2022-12-19T01:34:02.814Z,101583.69
2022-12-19T01:35:06.621Z,101583.66
2022-12-19T01:36:12.018Z,101581.03
2022-12-19T01:37:17.886Z,101589.66
2022-12-19T01:38:20.553Z,101585.28
2022-12-19T01:39:23.019Z,101593.19
2022-12-19T01:40:28.979Z,101580.91
2022-12-19T01:41:31.384Z,101578.31
2022-12-19T01:42:36.677Z,101570.44
2022-12-19T01:43:56.534Z,101581.78
2022-12-19T01:45:37.461Z,101567.78
2022-12-19T01:46:45.859Z,101566.00
2022-12-19T01:47:53.465Z,101556.41
2022-12-19T01:48:56.342Z,101558.16
2022-12-19T01:49:58.872Z,101557.31
2022-12-19T01:51:02.880Z,101554.66
2022-12-19T01:52:08.592Z,101555.44
2022-12-19T01:53:13.767Z,101558.06
2022-12-19T01:54:20.785Z,101559.78
2022-12-19T01:55:22.756Z,101560.56
2022-12-19T01:56:30.169Z,101554.44
2022-12-19T01:57:31.769Z,101547.47
2022-12-19T01:58:38.950Z,101543.09
2022-12-19T01:59:45.563Z,101536.13
2022-12-19T02:00:48.341Z,101536.09
2022-12-19T02:01:55.445Z,101532.50
2022-12-19T02:03:01.825Z,101526.41
2022-12-19T02:04:03.581Z,101525.50
2022-12-19T02:05:06.818Z,101528.06
2022-12-19T02:06:09.339Z,101527.16
2022-12-19T02:07:15.939Z,101531.50
2022-12-19T02:08:18.470Z,101523.53
2022-12-19T02:09:21.471Z,101518.28
2022-12-19T02:10:23.364Z,101510.44
2022-12-19T02:11:27.545Z,101511.28
2022-12-19T02:12:33.683Z,101515.56
2022-12-19T02:13:37.627Z,101503.38
2022-12-19T02:14:41.709Z,101496.31
2022-12-19T02:15:51.871Z,101508.50
2022-12-19T02:17:15.397Z,101502.38
2022-12-19T02:18:34.060Z,101500.59
2022-12-19T02:20:05.479Z,101501.41
2022-12-19T02:21:33.510Z,101503.16
2022-12-19T02:22:51.188Z,101492.69
2022-12-19T02:24:41.826Z,101486.53
2022-12-19T02:25:58.904Z,101488.25
2022-12-19T02:27:15.695Z,101485.66
2022-12-19T02:28:32.995Z,101486.44
2022-12-19T02:30:08.911Z,101480.31
2022-12-19T02:31:18.118Z,101475.06
2022-12-19T02:32:27.479Z,101478.47
2022-12-19T02:33:36.793Z,101478.47
2022-12-19T02:34:44.905Z,101467.97
2022-12-19T02:35:54.699Z,101465.25
2022-12-19T02:37:03.147Z,101459.13
2022-12-19T02:38:15.378Z,101463.47
2022-12-19T02:39:24.235Z,101454.63
2022-12-19T02:40:32.971Z,101448.47
2022-12-19T02:41:44.018Z,101453.66
2022-12-19T02:42:51.425Z,101443.19
2022-12-19T02:43:59.062Z,101438.72
2022-12-19T02:45:03.558Z,101443.06
2022-12-19T02:46:08.443Z,101434.31
2022-12-19T02:47:13.456Z,101432.47
2022-12-19T02:48:19.233Z,101438.53
2022-12-19T02:49:30.430Z,101443.78
2022-12-19T02:50:38.699Z,101428.88
2022-12-19T02:51:40.422Z,101435.06
2022-12-19T02:52:48.857Z,101433.22
2022-12-19T02:53:50.891Z,101436.69
2022-12-19T02:54:57.007Z,101441.03
2022-12-19T02:56:22.172Z,101433.97
2022-12-19T02:57:30.046Z,101443.53
2022-12-19T02:58:43.498Z,101451.31
2022-12-19T03:00:03.084Z,101451.28
2022-12-19T03:01:30.865Z,101443.44
2022-12-19T03:02:49.307Z,101443.44
2022-12-19T03:04:16.243Z,101442.50
2022-12-19T03:05:26.955Z,101449.44
2022-12-19T03:06:35.858Z,101450.22
2022-12-19T03:07:44.084Z,101452.84
2022-12-19T03:08:52.188Z,101456.34
2022-12-19T03:10:04.415Z,101461.53
2022-12-19T03:11:09.739Z,101453.59
2022-12-19T03:12:17.681Z,101451.84
2022-12-19T03:13:24.213Z,101461.41
2022-12-19T03:14:27.224Z,101463.97
2022-12-19T03:15:29.960Z,101463.13
2022-12-19T03:16:34.802Z,101477.06
2022-12-19T03:17:39.177Z,101470.91
2022-12-19T03:18:41.080Z,101463.06
2022-12-19T03:19:43.754Z,101463.00
2022-12-19T03:20:49.678Z,101461.19
2022-12-19T03:21:53.280Z,101465.56
2022-12-19T03:22:54.787Z,101461.19
2022-12-19T03:23:58.746Z,101462.91
2022-12-19T03:25:01.504Z,101464.66
2022-12-19T03:26:06.566Z,101457.66
2022-12-19T03:27:12.258Z,101458.56
2022-12-19T03:28:21.666Z,101450.69
2022-12-19T03:29:29.994Z,101446.34
2022-12-19T03:30:34.389Z,101443.75
2022-12-19T03:31:38.865Z,101455.06
2022-12-19T03:32:44.412Z,101450.69
2022-12-19T03:33:51.321Z,101452.41
2022-12-19T03:34:57.235Z,101440.22
2022-12-19T03:36:05.278Z,101445.47
2022-12-19T03:37:12.921Z,101448.03
2022-12-19T03:38:19.167Z,101434.97
2022-12-19T03:39:25.312Z,101443.63
2022-12-19T03:40:29.803Z,101433.13
2022-12-19T03:41:51.159Z,101431.38
2022-12-19T03:43:09.666Z,101433.13
2022-12-19T03:44:17.085Z,101427.06
2022-12-19T03:45:25.958Z,101430.47
2022-12-19T03:46:28.621Z,101430.47
2022-12-19T03:47:38.026Z,101425.22
2022-12-19T03:48:44.893Z,101423.47
2022-12-19T03:49:48.585Z,101420.84
2022-12-19T03:50:59.033Z,101428.63
2022-12-19T03:52:10.780Z,101419.00
2022-12-19T03:53:25.230Z,101420.72
2022-12-19T03:54:31.557Z,101420.72
2022-12-19T03:55:38.880Z,101422.44
2022-12-19T03:56:46.455Z,101417.19
2022-12-19T03:57:56.367Z,101425.06
2022-12-19T03:59:03.324Z,101416.34
2022-12-19T04:00:07.999Z,101420.72
2022-12-19T04:01:14.318Z,101421.63
2022-12-19T04:02:17.978Z,101413.78
2022-12-19T04:03:22.132Z,101413.78
2022-12-19T04:04:26.809Z,101413.78
2022-12-19T04:05:30.571Z,101405.91
2022-12-19T04:06:34.368Z,101405.00
2022-12-19T04:07:38.224Z,101400.63
2022-12-19T04:08:40.079Z,101399.75
2022-12-19T04:09:44.248Z,101396.25
2022-12-19T04:10:50.064Z,101401.47
2022-12-19T04:11:55.550Z,101407.63
2022-12-19T04:13:01.165Z,101403.16
2022-12-19T04:14:07.179Z,101399.63
2022-12-19T04:15:12.541Z,101397.91
2022-12-19T04:16:22.578Z,101397.03
2022-12-19T04:17:34.091Z,101396.97
2022-12-19T04:18:38.201Z,101397.81
2022-12-19T04:19:47.918Z,101397.03
2022-12-19T04:20:56.002Z,101400.50
2022-12-19T04:22:05.666Z,101393.50
2022-12-19T04:23:15.959Z,101392.56
2022-12-19T04:24:23.889Z,101397.81
2022-12-19T04:25:30.687Z,101392.56
2022-12-19T04:26:34.941Z,101393.41
2022-12-19T04:27:41.590Z,101398.66
2022-12-19T04:28:47.281Z,101397.88
2022-12-19T04:29:52.753Z,101397.81
2022-12-19T04:30:54.684Z,101401.34
2022-12-19T04:31:57.460Z,101400.41
2022-12-19T04:32:59.442Z,101408.28
2022-12-19T04:34:01.997Z,101408.28
2022-12-19T04:35:05.698Z,101408.28
2022-12-19T04:36:08.982Z,101405.63
2022-12-19T04:37:13.109Z,101411.72
2022-12-19T04:38:14.949Z,101409.97
2022-12-19T04:39:17.705Z,101406.47
2022-12-19T04:40:19.406Z,101411.66
2022-12-19T04:41:21.892Z,101409.88
2022-12-19T04:42:23.667Z,101406.34
2022-12-19T04:43:26.424Z,101415.13
2022-12-19T04:44:27.961Z,101412.50
2022-12-19T04:45:31.153Z,101406.34
2022-12-19T04:46:35.638Z,101411.53
2022-12-19T04:47:38.151Z,101417.63
2022-12-19T04:48:39.693Z,101408.84
2022-12-19T04:49:42.192Z,101409.75
2022-12-19T04:50:45.065Z,101405.34
2022-12-19T04:51:47.828Z,101407.94
2022-12-19T04:52:53.218Z,101407.94
2022-12-19T04:53:58.416Z,101397.47
2022-12-19T04:55:00.006Z,101399.16
2022-12-19T04:56:03.684Z,101400.91
2022-12-19T04:57:06.984Z,101407.00
2022-12-19T04:58:15.342Z,101407.88
2022-12-19T04:59:23.107Z,101400.00
2022-12-19T05:00:26.162Z,101406.97
2022-12-19T05:01:27.831Z,101403.44
2022-12-19T05:02:30.530Z,101406.00
2022-12-19T05:03:33.354Z,101392.97
2022-12-19T05:04:35.955Z,101392.97
2022-12-19T05:05:46.750Z,101399.03
2022-12-19T05:06:50.573Z,101398.19
2022-12-19T05:07:53.703Z,101392.03
2022-12-19T05:08:56.642Z,101395.50
2022-12-19T05:09:58.875Z,101392.88
2022-12-19T05:11:02.003Z,101397.22
2022-12-19T05:12:03.870Z,101397.22
2022-12-19T05:13:06.344Z,101391.97
2022-12-19T05:14:07.884Z,101400.75
2022-12-19T05:15:11.739Z,101386.72
2022-12-19T05:16:13.515Z,101385.88
2022-12-19T05:17:16.104Z,101388.41
2022-12-19T05:18:17.599Z,101388.41
2022-12-19T05:19:20.054Z,101384.03
2022-12-19T05:20:21.569Z,101379.66
2022-12-19T05:21:25.520Z,101384.03
2022-12-19T05:22:27.080Z,101384.88
2022-12-19T05:23:29.867Z,101379.59
2022-12-19T05:24:31.421Z,101377.84
2022-12-19T05:25:33.949Z,101382.22
2022-12-19T05:26:35.470Z,101378.75
2022-12-19T05:27:37.976Z,101385.75
2022-12-19T05:28:39.994Z,101390.88
2022-12-19T05:29:42.486Z,101385.69
2022-12-19T05:30:49.150Z,101379.53
2022-12-19T05:31:54.501Z,101378.66
2022-12-19T05:32:56.060Z,101384.72
2022-12-19T05:33:58.564Z,101392.50
2022-12-19T05:35:00.156Z,101380.34
2022-12-19T05:36:03.199Z,101387.13
2022-12-19T05:37:06.046Z,101380.13
2022-12-19T05:38:08.559Z,101380.06
2022-12-19T05:39:11.467Z,101384.38
2022-12-19T05:40:14.040Z,101387.00
2022-12-19T05:41:17.452Z,101381.72
2022-12-19T05:42:20.900Z,101389.53
2022-12-19T05:43:24.496Z,101385.97
2022-12-19T05:44:28.884Z,101382.44
2022-12-19T05:45:31.152Z,101386.78
2022-12-19T05:46:35.077Z,101387.63
2022-12-19T05:47:38.046Z,101387.56
2022-12-19T05:48:42.776Z,101384.94
2022-12-19T05:49:44.912Z,101384.91
2022-12-19T05:50:51.422Z,101389.19
2022-12-19T05:51:53.888Z,101391.81
2022-12-19T05:52:56.853Z,101394.41
2022-12-19T05:54:01.320Z,101392.69
2022-12-19T05:55:02.993Z,101397.94
2022-12-19T05:56:08.622Z,101390.84
2022-12-19T05:57:10.684Z,101393.47
2022-12-19T05:58:15.525Z,101397.81
2022-12-19T05:59:18.584Z,101395.13
2022-12-19T06:00:21.960Z,101396.00
2022-12-19T06:01:25.853Z,101393.38
2022-12-19T06:02:28.664Z,101396.81
2022-12-19T06:03:30.438Z,101394.16
2022-12-19T06:04:33.166Z,101384.50
2022-12-19T06:05:37.861Z,101385.38
2022-12-19T06:06:40.435Z,101390.63
2022-12-19T06:07:41.974Z,101387.91
2022-12-19T06:08:46.074Z,101383.53
2022-12-19T06:09:47.737Z,101386.16
2022-12-19T06:10:50.376Z,101389.63
2022-12-19T06:11:52.933Z,101388.63
2022-12-19T06:12:54.471Z,101391.22
2022-12-19T06:13:57.709Z,101384.16
2022-12-19T06:15:00.122Z,101384.13
2022-12-19T06:16:14.584Z,101376.16
2022-12-19T06:17:16.228Z,101378.78
2022-12-19T06:18:18.728Z,101377.03
2022-12-19T06:19:20.208Z,101388.25
2022-12-19T06:20:23.887Z,101379.47
2022-12-19T06:21:25.684Z,101385.56
2022-12-19T06:22:28.198Z,101386.34
2022-12-19T06:23:31.397Z,101383.69
2022-12-19T06:24:35.180Z,101378.44
2022-12-19T06:25:36.701Z,101377.50
2022-12-19T06:26:39.846Z,101380.06
2022-12-19T06:27:42.511Z,101380.06
2022-12-19T06:28:45.072Z,101384.41
2022-12-19T06:29:46.566Z,101383.47
2022-12-19T06:30:49.089Z,101383.41
2022-12-19T06:31:51.649Z,101388.56
2022-12-19T06:32:53.168Z,101387.75
2022-12-19T06:33:56.712Z,101385.13
2022-12-19T06:35:05.411Z,101385.97
2022-12-19T06:36:11.355Z,101383.28
2022-12-19T06:37:13.004Z,101390.25
2022-12-19T06:38:15.545Z,101394.56
2022-12-19T06:39:28.045Z,101384.00
2022-12-19T06:41:01.438Z,101392.75
2022-12-19T06:42:25.377Z,101384.88
2022-12-19T06:43:28.779Z,101382.25
2022-12-19T06:44:31.765Z,101386.63
2022-12-19T06:45:34.256Z,101392.66
2022-12-19T06:46:36.408Z,101390.88
2022-12-19T06:47:38.891Z,101376.84
2022-12-19T06:48:40.408Z,101389.91
2022-12-19T06:49:42.889Z,101385.50
2022-12-19T06:50:44.420Z,101379.34
2022-12-19T06:51:47.052Z,101388.84
2022-12-19T06:52:48.689Z,101388.84
2022-12-19T06:53:52.145Z,101394.88
2022-12-19T06:54:54.743Z,101390.50
2022-12-19T06:55:59.507Z,101384.34
2022-12-19T06:57:02.224Z,101387.72
2022-12-19T06:58:04.182Z,101388.66
2022-12-19T06:59:08.289Z,101380.78
2022-12-19T07:00:11.937Z,101382.44
2022-12-19T07:01:20.591Z,101378.91
2022-12-19T07:02:29.405Z,101380.56
2022-12-19T07:03:38.811Z,101377.91
2022-12-19T07:04:44.429Z,101384.88
2022-12-19T07:05:47.085Z,101381.38
2022-12-19T07:06:49.422Z,101384.88
2022-12-19T07:07:52.028Z,101378.69
2022-12-19T07:08:53.622Z,101387.34
2022-12-19T07:09:56.129Z,101382.09
2022-12-19T07:11:00.656Z,101379.47
2022-12-19T07:12:02.812Z,101378.47
2022-12-19T07:13:05.405Z,101377.50
2022-12-19T07:14:09.047Z,101376.59
2022-12-19T07:15:14.917Z,101378.34
2022-12-19T07:16:17.442Z,101371.31
2022-12-19T07:17:21.884Z,101373.00
2022-12-19T07:18:23.489Z,101377.34
2022-12-19T07:19:28.365Z,101385.19
2022-12-19T07:20:34.107Z,101380.78
2022-12-19T07:21:36.258Z,101390.28
2022-12-19T07:22:38.954Z,101385.03
2022-12-19T07:23:42.083Z,101388.53
2022-12-19T07:24:43.856Z,101393.69
2022-12-19T07:25:46.411Z,101392.84
2022-12-19T07:26:50.396Z,101394.56
2022-12-19T07:27:53.464Z,101391.94
2022-12-19T07:28:55.242Z,101391.00
2022-12-19T07:29:57.718Z,101401.44
2022-12-19T07:30:59.260Z,101401.44
2022-12-19T07:32:01.846Z,101396.13
2022-12-19T07:33:03.656Z,101401.38
2022-12-19T07:34:06.189Z,101397.81
2022-12-19T07:35:08.529Z,101390.75
2022-12-19T07:36:11.408Z,101388.03
2022-12-19T07:37:14.048Z,101386.25
2022-12-19T07:38:16.628Z,101391.47
2022-12-19T07:39:19.178Z,101393.13
2022-12-19T07:40:22.429Z,101395.72
2022-12-19T07:41:25.072Z,101398.34
2022-12-19T07:42:32.498Z,101393.03
2022-12-19T07:43:35.967Z,101394.81
2022-12-19T07:44:38.852Z,101399.06
2022-12-19T07:45:41.004Z,101392.03
2022-12-19T07:46:44.691Z,101390.19
2022-12-19T07:47:47.871Z,101387.56
2022-12-19T07:48:51.544Z,101386.66
2022-12-19T07:50:04.480Z,101391.00
2022-12-19T07:51:07.312Z,101388.34
2022-12-19T07:52:09.803Z,101390.03
2022-12-19T07:53:11.407Z,101394.38
2022-12-19T07:54:13.929Z,101391.75
2022-12-19T07:55:15.839Z,101395.28
2022-12-19T07:56:28.965Z,101390.84
2022-12-19T07:57:42.776Z,101388.22
2022-12-19T07:58:45.083Z,101395.16
2022-12-19T07:59:47.608Z,101390.75
2022-12-19T08:01:01.281Z,101391.63
2022-12-19T08:02:04.109Z,101398.59
2022-12-19T08:03:06.800Z,101395.97
2022-12-19T08:04:10.480Z,101405.53
2022-12-19T08:05:13.808Z,101395.88
2022-12-19T08:06:16.571Z,101399.34
2022-12-19T08:07:19.064Z,101403.69
2022-12-19T08:08:21.363Z,101401.97
2022-12-19T08:09:28.927Z,101394.88
2022-12-19T08:10:30.846Z,101393.97
2022-12-19T08:11:33.348Z,101396.59
2022-12-19T08:12:35.056Z,101397.34
2022-12-19T08:13:44.798Z,101400.84
2022-12-19T08:14:52.803Z,101402.56
2022-12-19T08:16:01.153Z,101399.88
2022-12-19T08:18:25.907Z,101398.94
2022-12-19T08:19:28.485Z,101397.16
2022-12-19T08:20:31.160Z,101392.75
2022-12-19T08:21:32.678Z,101397.03
2022-12-19T08:22:35.572Z,101393.53
2022-12-19T08:23:38.950Z,101399.59
2022-12-19T08:24:40.549Z,101399.50
2022-12-19T08:25:45.118Z,101398.66
2022-12-19T08:26:47.977Z,101403.84
2022-12-19T08:28:00.565Z,101402.00
2022-12-19T08:29:14.432Z,101397.59
2022-12-19T08:30:19.805Z,101401.03
2022-12-19T08:31:25.231Z,101402.72
2022-12-19T08:32:27.261Z,101402.72
2022-12-19T08:33:29.889Z,101406.97
2022-12-19T08:34:32.792Z,101400.88
2022-12-19T08:35:37.002Z,101413.94
2022-12-19T08:36:39.597Z,101413.88
2022-12-19T08:37:42.114Z,101410.31
2022-12-19T08:38:44.426Z,101410.25
2022-12-19T08:39:47.067Z,101413.66
2022-12-19T08:40:54.379Z,101401.34
2022-12-19T08:41:57.194Z,101412.69
2022-12-19T08:42:59.956Z,101411.72
2022-12-19T08:44:02.754Z,101409.09
2022-12-19T08:45:08.189Z,101411.69
2022-12-19T08:46:11.039Z,101413.44
2022-12-19T08:47:12.657Z,101410.72
2022-12-19T08:48:15.287Z,101411.59
2022-12-19T08:49:17.461Z,101411.53
2022-12-19T08:50:20.860Z,101414.22
2022-12-19T08:51:24.452Z,101413.25
2022-12-19T08:52:35.991Z,101401.88
2022-12-19T08:53:48.708Z,101407.13
2022-12-19T08:54:52.797Z,101395.75
2022-12-19T08:55:56.294Z,101394.75
2022-12-19T08:56:59.161Z,101393.03
2022-12-19T08:58:01.782Z,101398.16
2022-12-19T08:59:04.841Z,101396.47
2022-12-19T09:00:09.711Z,101401.63
2022-12-19T09:01:19.137Z,101400.72
2022-12-19T09:02:22.072Z,101394.59
2022-12-19T09:03:24.122Z,101392.78
2022-12-19T09:05:35.826Z,101386.56
2022-12-19T09:06:04.062Z,101389.13
2022-12-19T09:07:09.578Z,101395.25
2022-12-19T09:08:11.183Z,101391.69
2022-12-19T09:09:13.753Z,101396.03
2022-12-19T09:10:16.572Z,101397.75
2022-12-19T09:11:20.715Z,101390.63
2022-12-19T09:12:23.263Z,101389.75
2022-12-19T09:13:25.896Z,101395.88
2022-12-19T09:14:28.419Z,101395.72
2022-12-19T09:15:31.532Z,101391.31
2022-12-19T09:16:34.515Z,101400.88
2022-12-19T09:17:37.267Z,101392.94
2022-12-19T09:18:47.908Z,101393.78
2022-12-19T09:19:51.345Z,101394.56
2022-12-19T09:20:56.969Z,101392.78
2022-12-19T09:22:09.608Z,101393.63
2022-12-19T09:23:13.194Z,101391.78
2022-12-19T09:24:15.669Z,101394.34
2022-12-19T09:25:17.452Z,101385.50
2022-12-19T09:26:21.048Z,101392.41
2022-12-19T09:27:24.802Z,101393.19
2022-12-19T09:28:28.177Z,101403.72
2022-12-19T09:29:35.306Z,101395.72
2022-12-19T09:30:39.691Z,101400.00
2022-12-19T09:31:41.300Z,101399.06
2022-12-19T09:32:43.789Z,101398.13
2022-12-19T09:33:46.622Z,101397.13
2022-12-19T09:34:49.183Z,101394.44
2022-12-19T09:35:52.441Z,101396.97
2022-12-19T09:36:57.170Z,101396.91
2022-12-19T09:38:00.532Z,101397.78
2022-12-19T09:39:03.666Z,101397.69
2022-12-19T09:40:07.445Z,101406.38
2022-12-19T09:41:39.909Z,101402.88
2022-12-19T09:43:04.285Z,101404.50
2022-12-19T09:44:18.985Z,101396.56
2022-12-19T09:45:47.843Z,101401.72
2022-12-19T09:46:52.415Z,101411.34
2022-12-19T09:47:58.708Z,101405.06
2022-12-19T09:49:02.920Z,101400.66
2022-12-19T09:50:23.861Z,101404.91
2022-12-19T09:51:36.027Z,101412.75
2022-12-19T09:52:43.166Z,101405.63
2022-12-19T09:53:59.538Z,101407.31
2022-12-19T09:55:05.658Z,101402.91
2022-12-19T09:56:13.707Z,101405.47
2022-12-19T09:57:36.637Z,101415.06
2022-12-19T09:58:55.212Z,101409.72
2022-12-19T10:00:01.918Z,101406.22
